Time;durP1;ratioP1;P1;durP2;ratioP2;P2;SDS_P1;SDS_P2;PMS_P1;PMS_P2;Temp;Humidity;BMP_temperature;BMP_pressure;BME280_temperature;BME280_humidity;BME280_pressure;Samples;Min_cycle;Max_cycle;Signal;HPM_P1;HPM_P2
2021/08/13 00:01:20;;;;;;;13.05;11.15;;;;;;;;;;5034302;28;20093;-80
2021/08/13 00:03:46;;;;;;;20.95;11.73;;;18.60;97.20;;;;;;5034210;28;20041;-78
2021/08/13 00:06:12;;;;;;;14.23;12.45;;;18.40;97.80;;;;;;5034129;28;20021;-79
2021/08/13 00:08:38;;;;;;;13.55;10.93;;;18.40;97.90;;;;;;5034019;28;20120;-80
2021/08/13 00:11:04;;;;;;;18.88;9.95;;;18.30;97.90;;;;;;5033879;28;20514;-79
2021/08/13 00:13:30;;;;;;;15.23;10.00;;;;;;;;;;5034544;28;20382;-79
2021/08/13 00:15:57;;;;;;;11.90;9.43;;;;;;;;;;5033696;28;20352;-79
2021/08/13 00:18:22;;;;;;;12.32;9.93;;;18.30;98.10;;;;;;5031718;28;20087;-79
2021/08/13 00:20:48;;;;;;;14.40;9.88;;;18.20;98.20;;;;;;5034085;28;20018;-79
2021/08/13 00:23:15;;;;;;;15.05;10.27;;;;;;;;;;5030880;28;20017;-80
2021/08/13 00:25:41;;;;;;;13.57;9.98;;;18.20;98.20;;;;;;5033556;28;20441;-79
2021/08/13 00:28:06;;;;;;;13.18;9.07;;;18.10;98.30;;;;;;5033473;28;20051;-78
2021/08/13 00:30:33;;;;;;;12.85;9.57;;;;;;;;;;5033633;28;20021;-81
2021/08/13 00:32:59;;;;;;;11.38;8.52;;;;;;;;;;5024380;28;20029;-78
2021/08/13 00:35:25;;;;;;;12.73;8.88;;;;;;;;;;5034919;28;20093;-79
2021/08/13 00:37:51;;;;;;;13.63;7.93;;;18.10;98.20;;;;;;5034400;28;20017;-79
2021/08/13 00:40:17;;;;;;;12.48;8.65;;;;;;;;;;5037222;28;20033;-79
2021/08/13 00:42:43;;;;;;;13.27;8.80;;;;;;;;;;5035986;28;20049;-78
2021/08/13 00:45:10;;;;;;;10.13;9.02;;;;;;;;;;5026000;28;20084;-79
2021/08/13 00:47:36;;;;;;;8.82;7.78;;;;;;;;;;5033744;28;20045;-80
2021/08/13 00:50:03;;;;;;;9.57;8.40;;;;;;;;;;5029272;28;20041;-79
2021/08/13 00:52:30;;;;;;;13.85;7.65;;;;;;;;;;5033433;28;20021;-78
2021/08/13 00:54:56;;;;;;;11.15;7.78;;;;;;;;;;5034917;28;20029;-79
2021/08/13 00:57:22;;;;;;;9.98;8.73;;;;;;;;;;5031026;28;20549;-79
2021/08/13 00:59:48;;;;;;;10.13;8.40;;;;;;;;;;5033293;28;20029;-80
2021/08/13 01:02:14;;;;;;;9.88;7.35;;;;;;;;;;5016060;28;20379;-79
2021/08/13 01:04:41;;;;;;;9.35;8.45;;;;;;;;;;5033038;28;20025;-79
2021/08/13 01:07:07;;;;;;;12.73;8.30;;;;;;;;;;5032664;28;20124;-79
2021/08/13 01:09:35;;;;;;;9.48;8.55;;;;;;;;;;5033091;28;20092;-80
2021/08/13 01:12:05;;;;;;;13.57;9.52;;;;;;;;;;5032886;28;20029;-80
2021/08/13 01:14:57;;;;;;;13.77;8.88;;;;;;;;;;5032576;28;20036;-80
2021/08/13 01:17:23;;;;;;;10.18;8.68;;;;;;;;;;5031092;28;20025;-80
2021/08/13 01:20:04;;;;;;;8.60;7.70;;;;;;;;;;5032463;28;20097;-80
2021/08/13 01:22:34;;;;;;;10.15;7.60;;;;;;;;;;5029152;28;20037;-79
2021/08/13 01:25:02;;;;;;;7.63;6.88;;;;;;;;;;5032408;28;20018;-80
2021/08/13 01:27:30;;;;;;;9.02;7.28;;;;;;;;;;5032658;28;20029;-80
2021/08/13 01:30:00;;;;;;;8.57;7.60;;;;;;;;;;5018929;28;20048;-80
2021/08/13 01:32:28;;;;;;;14.50;7.70;;;;;;;;;;5014480;28;20033;-79
2021/08/13 01:35:01;;;;;;;9.32;7.18;;;17.90;98.10;;;;;;5032467;28;20355;-78
2021/08/13 01:37:28;;;;;;;10.48;7.30;;;;;;;;;;5014643;28;20406;-80
2021/08/13 01:39:55;;;;;;;7.73;7.03;;;17.10;99.60;;;;;;5032690;28;20052;-80
2021/08/13 01:42:21;;;;;;;8.73;7.75;;;17.00;99.30;;;;;;5032270;28;20287;-79
2021/08/13 01:44:48;;;;;;;7.75;6.93;;;17.00;99.40;;;;;;5032329;28;20021;-79
2021/08/13 01:47:14;;;;;;;11.20;6.70;;;17.10;99.50;;;;;;5032406;28;20032;-78
2021/08/13 01:49:40;;;;;;;8.55;7.72;;;17.20;99.40;;;;;;5031986;28;20022;-79
2021/08/13 01:52:07;;;;;;;8.63;7.72;;;17.30;99.00;;;;;;5024723;28;20021;-78
2021/08/13 01:54:35;;;;;;;11.23;9.15;;;17.30;98.60;;;;;;5032159;28;20505;-79
2021/08/13 01:57:00;;;;;;;;;;;17.40;98.40;;;;;;5030244;28;20108;-78
2021/08/13 01:59:26;;;;;;;10.90;8.85;;;17.40;98.20;;;;;;5032630;28;20000;-78
2021/08/13 02:01:53;;;;;;;8.88;7.97;;;17.40;97.90;;;;;;5031949;28;20128;-78
2021/08/13 02:04:19;;;;;;;8.95;7.78;;;17.40;97.70;;;;;;5014242;28;20048;-78
2021/08/13 02:06:49;;;;;;;18.15;7.40;;;17.30;97.30;;;;;;5031932;28;20021;-79
2021/08/13 02:09:16;;;;;;;10.60;7.40;;;17.30;97.30;;;;;;5032577;28;20033;-79
2021/08/13 02:11:44;;;;;;;10.82;7.40;;;17.20;97.50;;;;;;5031547;28;20013;-79
2021/08/13 02:14:10;;;;;;;8.55;7.65;;;17.30;97.30;;;;;;5032008;28;20045;-78
2021/08/13 02:16:39;;;;;;;8.68;7.32;;;17.30;97.20;;;;;;5032099;28;20052;-79
2021/08/13 02:19:14;;;;;;;11.55;7.72;;;17.30;97.20;;;;;;5032435;28;20021;-79
2021/08/13 02:21:43;;;;;;;8.35;7.50;;;17.20;97.10;;;;;;5022544;28;20022;-79
2021/08/13 02:24:09;;;;;;;8.07;6.28;;;17.30;97.20;;;;;;5014556;28;20018;-79
2021/08/13 02:26:35;;;;;;;6.55;5.88;;;17.20;96.70;;;;;;5032300;28;20430;-79
2021/08/13 02:29:02;;;;;;;8.30;6.18;;;17.30;96.30;;;;;;5018109;28;20128;-79
2021/08/13 02:31:29;;;;;;;8.38;5.05;;;17.30;95.80;;;;;;5031022;28;20021;-79
2021/08/13 02:33:55;;;;;;;7.25;4.88;;;17.20;95.60;;;;;;5032005;28;20059;-79
2021/08/13 02:36:30;;;;;;;6.32;5.15;;;17.30;95.60;;;;;;5032000;28;20025;-80
2021/08/13 02:39:03;;;;;;;6.97;4.93;;;17.30;95.40;;;;;;5033723;28;20013;-80
2021/08/13 02:41:33;;;;;;;7.82;4.60;;;17.30;95.50;;;;;;5035896;28;20017;-79
2021/08/13 02:44:04;;;;;;;5.88;5.18;;;17.30;95.40;;;;;;5035481;28;20084;-80
2021/08/13 02:46:37;;;;;;;6.70;5.35;;;17.30;95.30;;;;;;5035382;28;20036;-80
2021/08/13 02:49:06;;;;;;;6.57;5.30;;;17.30;95.40;;;;;;5035414;28;20087;-80
2021/08/13 02:51:34;;;;;;;8.50;5.18;;;17.30;95.40;;;;;;5035472;28;20049;-80
2021/08/13 02:54:01;;;;;;;12.00;5.05;;;17.30;95.20;;;;;;5035253;28;20033;-79
2021/08/13 02:56:30;;;;;;;8.43;5.05;;;17.30;95.10;;;;;;5031795;28;20024;-79
2021/08/13 02:59:01;;;;;;;5.55;4.78;;;17.40;94.90;;;;;;5031238;28;20490;-80
2021/08/13 03:01:30;;;;;;;8.52;5.28;;;17.40;94.80;;;;;;5025525;28;20018;-79
2021/08/13 03:03:59;;;;;;;8.48;5.13;;;17.40;94.90;;;;;;5035291;28;20053;-80
2021/08/13 03:06:30;;;;;;;7.10;5.28;;;17.40;94.90;;;;;;5035486;28;20482;-78
2021/08/13 03:08:58;;;;;;;6.95;4.50;;;17.50;94.90;;;;;;5039798;28;20462;-78
2021/08/13 03:11:26;;;;;;;9.00;5.32;;;17.50;94.50;;;;;;5038547;28;20820;-79
2021/08/13 03:13:53;;;;;;;6.28;4.45;;;17.50;94.40;;;;;;5035973;28;20021;-79
2021/08/13 03:16:19;;;;;;;7.13;5.75;;;17.60;94.50;;;;;;5035100;28;20046;-79
2021/08/13 03:18:45;;;;;;;6.25;5.20;;;17.60;94.40;;;;;;5017467;28;20041;-79
2021/08/13 03:21:12;;;;;;;5.97;4.75;;;17.60;94.30;;;;;;5035101;28;20447;-80
2021/08/13 03:23:39;;;;;;;8.93;5.30;;;17.70;94.30;;;;;;5021306;28;20497;-79
2021/08/13 03:26:08;;;;;;;5.40;4.85;;;17.70;94.10;;;;;;5034943;28;20030;-79
2021/08/13 03:28:35;;;;;;;6.82;4.38;;;17.70;93.80;;;;;;5034773;28;20034;-80
2021/08/13 03:31:01;;;;;;;4.53;3.13;;;17.60;93.40;;;;;;5035010;28;20025;-79
2021/08/13 03:33:27;;;;;;;4.93;3.97;;;17.60;92.30;;;;;;5034662;28;20037;-79
2021/08/13 03:35:53;;;;;;;4.78;3.83;;;17.50;91.80;;;;;;5035497;28;20026;-80
2021/08/13 03:38:19;;;;;;;5.63;3.17;;;17.40;91.60;;;;;;5034935;28;20102;-80
2021/08/13 03:40:45;;;;;;;3.72;2.92;;;17.40;91.20;;;;;;5034935;28;20104;-80
2021/08/13 03:43:11;;;;;;;5.53;3.33;;;17.40;91.10;;;;;;5034750;28;20033;-80
2021/08/13 03:45:37;;;;;;;3.47;2.92;;;17.40;91.20;;;;;;5034513;28;20029;-80
2021/08/13 03:48:03;;;;;;;8.63;3.50;;;17.40;90.90;;;;;;5036753;28;20084;-79
2021/08/13 03:50:29;;;;;;;4.63;2.63;;;17.40;91.10;;;;;;5033457;28;20071;-80
2021/08/13 03:52:55;;;;;;;3.50;2.88;;;17.50;90.80;;;;;;5034655;28;20026;-79
2021/08/13 03:55:20;;;;;;;3.13;2.50;;;17.50;91.00;;;;;;5034408;28;20026;-79
2021/08/13 03:57:46;;;;;;;3.75;2.78;;;17.60;90.60;;;;;;5034496;28;20029;-79
2021/08/13 04:00:13;;;;;;;6.38;2.75;;;17.50;90.10;;;;;;5034843;28;20052;-80
2021/08/13 04:02:39;;;;;;;4.68;3.38;;;17.50;90.20;;;;;;5036849;28;20014;-80
2021/08/13 04:05:05;;;;;;;4.45;3.25;;;17.60;90.00;;;;;;5036303;28;20091;-81
2021/08/13 04:07:31;;;;;;;4.93;3.33;;;17.60;90.00;;;;;;5036612;28;20022;-79
2021/08/13 04:09:57;;;;;;;6.70;3.40;;;17.60;90.00;;;;;;5033964;28;20017;-80
2021/08/13 04:12:23;;;;;;;4.65;3.13;;;17.70;90.00;;;;;;5034264;28;20053;-79
2021/08/13 04:14:49;;;;;;;3.85;3.05;;;17.70;89.00;;;;;;5033801;28;20124;-80
2021/08/13 04:17:16;;;;;;;6.70;3.70;;;17.70;88.70;;;;;;5034024;28;20013;-80
2021/08/13 04:19:42;;;;;;;3.08;2.20;;;17.80;88.90;;;;;;5034089;28;20429;-80
2021/08/13 04:22:08;;;;;;;5.65;3.30;;;17.70;88.70;;;;;;5034343;28;20026;-80
2021/08/13 04:24:34;;;;;;;5.13;2.95;;;17.80;88.80;;;;;;5034168;28;20030;-79
2021/08/13 04:27:01;;;;;;;4.25;3.10;;;17.90;88.20;;;;;;5033674;28;20092;-81
2021/08/13 04:29:27;;;;;;;5.95;3.58;;;17.90;88.10;;;;;;5033947;28;20021;-80
2021/08/13 04:31:53;;;;;;;6.10;3.63;;;17.90;88.00;;;;;;5033786;28;20041;-79
2021/08/13 04:34:19;;;;;;;5.20;3.22;;;17.90;88.00;;;;;;5033678;28;20021;-80
2021/08/13 04:36:46;;;;;;;6.15;3.17;;;17.90;88.50;;;;;;5033474;28;20022;-80
2021/08/13 04:39:12;;;;;;;4.90;4.05;;;18.00;87.60;;;;;;5033808;28;20017;-80
2021/08/13 04:41:38;;;;;;;4.70;3.10;;;18.00;87.80;;;;;;5033499;28;20032;-80
2021/08/13 04:44:04;;;;;;;4.90;3.83;;;18.00;87.80;;;;;;5033797;28;20390;-79
2021/08/13 04:46:30;;;;;;;5.03;3.47;;;18.10;87.00;;;;;;5033411;28;20021;-78
2021/08/13 04:48:55;;;;;;;5.18;3.97;;;18.10;87.20;;;;;;5033503;28;20030;-80
2021/08/13 04:51:21;;;;;;;4.78;3.85;;;18.20;86.90;;;;;;5033623;28;20017;-78
2021/08/13 04:53:47;;;;;;;4.88;3.47;;;18.60;87.20;;;;;;5033685;28;20382;-81
2021/08/13 04:56:13;;;;;;;4.82;3.60;;;18.90;84.30;;;;;;5034088;28;20024;-79
2021/08/13 04:58:40;;;;;;;5.38;3.33;;;19.20;82.60;;;;;;5032920;28;20498;-82
2021/08/13 05:01:06;;;;;;;5.88;3.08;;;19.30;81.30;;;;;;5033051;28;20358;-79
2021/08/13 05:03:31;;;;;;;5.18;3.28;;;19.10;80.50;;;;;;5033725;28;20108;-80
2021/08/13 05:05:57;;;;;;;6.32;3.45;;;19.10;80.30;;;;;;5033396;28;20100;-79
2021/08/13 05:08:23;;;;;;;3.90;3.38;;;19.30;79.60;;;;;;5033121;28;20045;-81
2021/08/13 05:10:49;;;;;;;6.18;3.50;;;19.40;79.20;;;;;;5032644;28;20021;-79
2021/08/13 05:13:15;;;;;;;5.40;2.88;;;19.50;78.40;;;;;;5032816;28;20463;-80
2021/08/13 05:15:40;;;;;;;5.60;3.25;;;19.40;78.20;;;;;;5032982;28;20053;-81
2021/08/13 05:18:06;;;;;;;3.92;3.47;;;19.20;78.40;;;;;;5032895;28;20018;-80
2021/08/13 05:20:32;;;;;;;5.03;3.42;;;19.20;79.90;;;;;;5034478;28;20026;-80
2021/08/13 05:22:58;;;;;;;6.43;3.05;;;19.90;77.50;;;;;;5035628;28;20089;-79
2021/08/13 05:25:24;;;;;;;4.35;3.10;;;20.70;76.00;;;;;;5033747;28;20036;-78
2021/08/13 05:27:50;;;;;;;4.25;2.90;;;21.60;72.70;;;;;;5032568;28;20116;-79
2021/08/13 05:30:16;;;;;;;4.28;3.28;;;22.60;69.00;;;;;;5032474;28;20083;-80
2021/08/13 05:32:43;;;;;;;5.67;3.50;;;23.40;66.20;;;;;;5032907;28;20022;-80
2021/08/13 05:35:10;;;;;;;5.40;3.13;;;24.00;64.10;;;;;;5032215;28;20112;-80
2021/08/13 05:37:36;;;;;;;5.22;2.90;;;24.60;62.30;;;;;;5032382;28;20029;-80
2021/08/13 05:40:03;;;;;;;4.50;3.15;;;25.00;60.70;;;;;;5032155;28;20501;-81
2021/08/13 05:42:29;;;;;;;6.05;3.50;;;24.60;59.90;;;;;;5032356;28;20029;-79
2021/08/13 05:44:55;;;;;;;4.82;2.63;;;23.80;61.80;;;;;;5032427;28;20514;-81
2021/08/13 05:47:21;;;;;;;5.85;3.40;;;23.10;63.60;;;;;;5032566;28;20030;-81
2021/08/13 05:49:47;;;;;;;4.03;3.20;;;22.40;66.00;;;;;;5032636;28;20339;-80
2021/08/13 05:52:12;;;;;;;4.80;3.20;;;21.80;68.10;;;;;;5032195;28;20439;-80
2021/08/13 05:54:39;;;;;;;8.38;3.55;;;21.30;69.50;;;;;;5032363;28;20026;-80
2021/08/13 05:57:04;;;;;;;5.07;3.08;;;20.80;72.00;;;;;;5032430;28;20110;-79
2021/08/13 05:59:30;;;;;;;5.38;3.10;;;20.40;73.00;;;;;;5032540;28;20057;-79
2021/08/13 06:01:56;;;;;;;5.40;2.83;;;20.40;74.50;;;;;;5032682;28;20497;-81
2021/08/13 06:04:22;;;;;;;4.68;2.75;;;20.40;74.10;;;;;;5032728;28;20014;-80
2021/08/13 06:06:48;;;;;;;5.82;2.83;;;20.30;74.00;;;;;;5032361;28;20041;-79
2021/08/13 06:09:14;;;;;;;10.43;3.50;;;20.30;75.00;;;;;;5032273;28;20084;-80
2021/08/13 06:11:40;;;;;;;8.95;2.70;;;20.60;75.10;;;;;;5033030;28;20470;-80
2021/08/13 06:14:06;;;;;;;4.05;2.67;;;21.10;73.10;;;;;;5034468;28;20117;-81
2021/08/13 06:16:31;;;;;;;6.70;2.65;;;21.20;71.50;;;;;;5036293;28;20099;-81
2021/08/13 06:18:57;;;;;;;2.97;2.50;;;21.10;72.80;;;;;;5036391;28;20026;-81
2021/08/13 06:21:23;;;;;;;9.80;3.38;;;21.40;72.00;;;;;;5034236;28;20021;-79
2021/08/13 06:23:49;;;;;;;7.03;3.35;;;21.20;71.40;;;;;;5036751;28;20026;-81
2021/08/13 06:26:15;;;;;;;4.75;3.30;;;20.80;72.90;;;;;;5018774;28;20555;-83
2021/08/13 06:28:41;;;;;;;5.45;3.22;;;20.60;73.80;;;;;;5036486;28;20505;-81
2021/08/13 06:31:06;;;;;;;7.63;3.70;;;20.50;75.10;;;;;;5036481;28;20032;-81
2021/08/13 06:33:32;;;;;;;4.70;2.80;;;20.40;75.60;;;;;;5036467;28;20033;-85
2021/08/13 06:35:58;;;;;;;6.57;3.08;;;20.30;75.20;;;;;;5036328;28;20453;-83
2021/08/13 06:38:24;;;;;;;5.38;2.88;;;20.20;76.20;;;;;;5018589;28;20030;-82
2021/08/13 06:40:50;;;;;;;22.02;16.95;;;20.10;77.00;;;;;;5018779;28;20025;-83
2021/08/13 06:43:16;;;;;;;7.82;3.47;;;20.10;77.00;;;;;;5024062;28;20039;-83
2021/08/13 06:45:42;;;;;;;5.78;3.20;;;20.00;76.60;;;;;;5038465;28;20064;-83
2021/08/13 06:48:08;;;;;;;6.90;3.10;;;20.00;77.00;;;;;;5036454;28;20056;-84
2021/08/13 06:50:34;;;;;;;5.93;3.17;;;20.20;77.20;;;;;;5036205;28;20025;-83
2021/08/13 06:52:59;;;;;;;5.25;2.53;;;20.40;76.50;;;;;;5037252;28;20367;-82
2021/08/13 06:55:25;;;;;;;2.63;2.28;;;20.20;75.80;;;;;;5045101;28;20068;-83
2021/08/13 06:57:51;;;;;;;6.65;3.08;;;20.10;76.60;;;;;;5019412;28;20025;-82
2021/08/13 07:00:17;;;;;;;4.68;2.90;;;20.10;77.40;;;;;;5036743;28;20037;-85
2021/08/13 07:02:47;;;;;;;6.07;3.17;;;19.90;77.00;;;;;;5035813;28;20047;-83
2021/08/13 07:05:14;;;;;;;6.15;2.97;;;19.70;78.60;;;;;;5038409;28;20023;-83
2021/08/13 07:07:40;;;;;;;6.55;3.13;;;19.70;78.80;;;;;;5035956;28;20168;-84
2021/08/13 07:10:08;;;;;;;4.30;2.90;;;19.80;78.80;;;;;;5029764;28;20045;-82
2021/08/13 07:12:34;;;;;;;5.25;3.42;;;19.80;78.00;;;;;;5029132;28;20367;-83
2021/08/13 07:15:00;;;;;;;6.13;2.88;;;19.90;78.10;;;;;;5031284;28;20368;-83
2021/08/13 07:17:26;;;;;;;4.82;2.97;;;20.00;77.70;;;;;;5028401;28;20018;-83
2021/08/13 07:19:52;;;;;;;12.45;3.42;;;20.20;77.00;;;;;;5035233;28;20428;-83
2021/08/13 07:22:18;;;;;;;5.05;2.58;;;20.20;77.50;;;;;;5036827;28;20104;-82
2021/08/13 07:24:44;;;;;;;4.40;3.05;;;20.30;76.80;;;;;;5036291;28;20021;-84
2021/08/13 07:27:09;;;;;;;4.50;3.08;;;20.40;76.20;;;;;;5039612;28;20023;-83
2021/08/13 07:29:35;;;;;;;8.00;3.20;;;20.20;76.20;;;;;;5044466;28;20078;-82
2021/08/13 07:32:01;;;;;;;6.00;2.40;;;20.40;77.30;;;;;;5045571;28;20018;-82
2021/08/13 07:34:27;;;;;;;5.80;2.67;;;20.60;75.50;;;;;;5040913;28;20497;-84
2021/08/13 07:36:53;;;;;;;4.80;2.70;;;20.70;75.40;;;;;;5035321;28;20037;-83
2021/08/13 07:39:19;;;;;;;7.10;3.25;;;21.30;73.80;;;;;;5038938;28;20028;-83
2021/08/13 07:41:45;;;;;;;5.63;3.25;;;21.60;73.00;;;;;;5034932;28;20453;-83
2021/08/13 07:44:11;;;;;;;8.82;2.83;;;21.80;71.80;;;;;;5034950;28;20053;-85
2021/08/13 07:46:36;;;;;;;7.60;2.72;;;22.00;71.90;;;;;;5035290;28;20114;-83
2021/08/13 07:49:02;;;;;;;3.63;2.33;;;22.30;69.70;;;;;;5034593;28;20029;-83
2021/08/13 07:51:32;;;;;;;3.80;2.55;;;22.20;69.20;;;;;;5035438;28;20025;-85
2021/08/13 07:53:58;;;;;;;3.75;2.60;;;22.00;69.60;;;;;;5034981;28;20474;-84
2021/08/13 07:56:24;;;;;;;9.95;4.10;;;21.90;70.00;;;;;;5034681;28;20080;-85
2021/08/13 07:58:51;;;;;;;6.97;2.58;;;22.30;69.80;;;;;;5035854;28;20022;-82
2021/08/13 08:01:16;;;;;;;6.35;2.83;;;22.60;68.40;;;;;;5036399;28;20474;-85
2021/08/13 08:03:42;;;;;;;4.47;3.28;;;22.60;67.80;;;;;;5040786;28;20155;-82
2021/08/13 08:06:08;;;;;;;3.72;2.80;;;22.50;68.40;;;;;;5039234;28;20021;-83
2021/08/13 08:08:34;;;;;;;5.22;2.83;;;22.30;68.50;;;;;;5034233;28;20075;-84
2021/08/13 08:11:00;;;;;;;4.75;3.03;;;22.10;68.70;;;;;;5020359;28;20109;-84
2021/08/13 08:13:26;;;;;;;6.93;3.10;;;21.70;70.20;;;;;;5020644;28;20101;-82
2021/08/13 08:15:52;;;;;;;6.40;3.17;;;21.40;71.10;;;;;;5033892;28;20045;-84
2021/08/13 08:18:22;;;;;;;6.18;2.83;;;22.30;70.80;;;;;;5034198;28;20028;-82
2021/08/13 08:20:49;;;;;;;5.35;2.67;;;23.20;68.20;;;;;;5034548;28;20080;-82
2021/08/13 08:23:15;;;;;;;9.93;3.13;;;23.50;64.80;;;;;;5035224;28;22127;-84
2021/08/13 08:25:41;;;;;;;4.75;2.85;;;23.20;65.10;;;;;;5036771;28;20097;-84
2021/08/13 08:28:07;;;;;;;13.30;3.47;;;22.80;67.00;;;;;;5036264;28;20033;-85
2021/08/13 08:30:33;;;;;;;4.38;3.17;;;22.60;67.10;;;;;;5036477;28;20023;-85
2021/08/13 08:32:59;;;;;;;7.72;3.38;;;22.20;68.20;;;;;;5035425;28;20101;-82
2021/08/13 08:35:25;;;;;;;6.97;2.88;;;21.70;68.90;;;;;;5030048;28;20100;-85
2021/08/13 08:37:59;;;;;;;6.65;3.17;;;21.20;70.80;;;;;;5024554;28;20113;-84
2021/08/13 08:40:32;;;;;;;7.85;3.20;;;20.80;72.40;;;;;;5033649;28;20475;-84
2021/08/13 08:43:00;;;;;;;3.90;2.67;;;20.60;73.30;;;;;;5033981;28;20063;-82
2021/08/13 08:45:31;;;;;;;4.13;2.15;;;20.50;73.80;;;;;;5033746;28;20025;-83
2021/08/13 08:48:02;;;;;;;5.68;3.38;;;20.70;73.20;;;;;;5033782;28;20040;-83
2021/08/13 08:50:29;;;;;;;3.20;2.70;;;21.40;72.70;;;;;;5033711;28;20032;-83
2021/08/13 08:52:59;;;;;;;6.53;3.05;;;24.00;68.30;;;;;;5033622;28;20068;-84
2021/08/13 08:55:26;;;;;;;6.30;2.85;;;26.50;59.10;;;;;;5033487;28;20032;-83
2021/08/13 08:57:55;;;;;;;4.07;2.78;;;27.00;56.20;;;;;;5033467;28;20053;-84
2021/08/13 09:00:22;;;;;;;5.50;3.45;;;27.30;55.70;;;;;;5033065;28;20533;-84
2021/08/13 09:02:48;;;;;;;;;;;26.70;53.40;;;;;;5020240;28;20033;-82
2021/08/13 09:05:15;;;;;;;7.18;3.40;;;25.50;56.70;;;;;;5033353;28;19905;-84
2021/08/13 09:07:41;;;;;;;6.80;3.70;;;24.50;58.30;;;;;;5034016;28;20037;-85
2021/08/13 09:10:11;;;;;;;5.82;3.70;;;23.90;60.70;;;;;;5033537;28;20020;-85
2021/08/13 09:12:38;;;;;;;5.22;3.20;;;23.40;62.00;;;;;;5034527;28;20029;-85
2021/08/13 09:15:06;;;;;;;4.00;2.97;;;22.90;64.10;;;;;;5033182;28;20068;-85
2021/08/13 09:17:32;;;;;;;7.53;3.72;;;22.60;64.90;;;;;;5033194;28;20033;-84
2021/08/13 09:19:59;;;;;;;4.53;3.38;;;22.30;66.60;;;;;;5034271;28;20368;-84
2021/08/13 09:22:25;;;;;;;4.97;3.47;;;22.40;67.60;;;;;;5033470;28;20017;-84
2021/08/13 09:24:54;;;;;;;5.15;3.38;;;22.50;67.70;;;;;;5033419;28;20038;-83
2021/08/13 09:27:26;;;;;;;6.03;3.67;;;22.60;66.60;;;;;;5035664;28;20032;-84
2021/08/13 09:30:09;;;;;;;4.40;3.17;;;22.60;66.30;;;;;;5035298;28;20051;-84
2021/08/13 09:32:36;;;;;;;9.27;3.53;;;22.20;67.20;;;;;;5035872;28;20029;-85
2021/08/13 09:35:03;;;;;;;8.57;3.95;;;21.80;68.40;;;;;;5016438;28;20028;-85
2021/08/13 09:37:29;;;;;;;5.45;4.28;;;21.60;69.50;;;;;;5033741;28;20025;-85
2021/08/13 09:39:57;;;;;;;7.82;4.18;;;21.40;70.60;;;;;;5032636;28;20029;-83
2021/08/13 09:42:34;;;;;;;6.72;3.63;;;21.90;71.00;;;;;;5019065;28;20364;-84
2021/08/13 09:45:03;;;;;;;7.63;4.03;;;22.40;68.70;;;;;;5032669;28;20025;-84
2021/08/13 09:47:47;;;;;;;7.07;3.72;;;22.50;68.40;;;;;;5019722;28;20390;-83
2021/08/13 09:50:15;;;;;;;4.97;3.80;;;22.50;67.70;;;;;;5014662;28;20435;-85
2021/08/13 09:52:41;;;;;;;6.43;3.70;;;22.40;67.80;;;;;;5032521;28;20156;-84
2021/08/13 09:55:13;;;;;;;6.95;4.18;;;22.40;68.20;;;;;;5032816;28;20036;-83
2021/08/13 09:57:47;;;;;;;7.90;3.75;;;22.40;68.30;;;;;;5018953;28;20049;-84
2021/08/13 10:00:15;;;;;;;7.93;4.30;;;22.50;68.20;;;;;;5035734;28;20026;-82
2021/08/13 10:02:43;;;;;;;7.53;4.40;;;23.00;67.60;;;;;;5022720;28;20120;-84
2021/08/13 10:05:18;;;;;;;;;;;23.90;64.80;;;;;;5033296;28;20079;-84
2021/08/13 10:07:59;;;;;;;12.20;3.85;;;24.20;63.60;;;;;;5032779;28;19914;-83
2021/08/13 10:10:30;;;;;;;4.28;3.13;;;24.00;62.90;;;;;;5033322;28;20026;-84
2021/08/13 10:12:58;;;;;;;10.40;4.05;;;24.30;61.70;;;;;;5032787;28;20147;-82
2021/08/13 10:15:38;;;;;;;5.65;3.78;;;24.60;60.90;;;;;;5032700;28;20128;-84
2021/08/13 10:18:05;;;;;;;4.35;3.13;;;;;;;;;;5032426;28;20036;-84
2021/08/13 10:20:33;;;;;;;;;;;25.60;60.60;;;;;;5033161;28;20025;-84
2021/08/13 10:23:00;;;;;;;5.22;3.50;;;29.50;56.80;;;;;;5032972;28;19905;-84
2021/08/13 10:25:26;;;;;;;5.43;3.22;;;30.60;48.70;;;;;;5034094;28;20482;-86
2021/08/13 10:27:55;;;;;;;10.45;3.45;;;31.30;47.10;;;;;;5035764;28;20043;-84
2021/08/13 10:30:23;;;;;;;5.57;3.75;;;31.40;45.90;;;;;;5033004;28;20053;-83
2021/08/13 10:32:56;;;;;;;5.20;3.67;;;30.70;46.00;;;;;;5032868;28;20145;-83
2021/08/13 10:35:29;;;;;;;6.40;4.32;;;29.80;47.70;;;;;;5034325;28;20041;-84
2021/08/13 10:37:55;;;;;;;6.28;3.97;;;28.70;48.30;;;;;;5033531;28;20108;-83
2021/08/13 10:40:21;;;;;;;5.78;3.78;;;27.50;50.90;;;;;;4997147;28;20025;-84
2021/08/13 10:42:50;;;;;;;10.57;4.63;;;26.70;52.50;;;;;;5022458;28;20025;-83
2021/08/13 10:45:23;;;;;;;5.43;4.07;;;26.00;54.00;;;;;;5032312;28;20025;-82
2021/08/13 10:48:14;;;;;;;11.30;4.20;;;25.40;54.50;;;;;;5015273;28;20030;-84
2021/08/13 10:50:41;;;;;;;7.07;3.53;;;25.20;56.40;;;;;;5032984;28;20022;-84
2021/08/13 10:53:25;;;;;;;4.30;3.67;;;25.10;55.90;;;;;;5032865;28;20083;-84
2021/08/13 10:55:54;;;;;;;4.10;3.38;;;25.10;56.50;;;;;;5032369;28;20109;-84
2021/08/13 10:58:41;;;;;;;8.18;4.30;;;25.00;56.40;;;;;;5032773;28;20030;-85
2021/08/13 11:01:11;;;;;;;5.07;4.10;;;25.10;57.30;;;;;;5022414;28;20029;-84
2021/08/13 11:03:39;;;;;;;8.45;3.92;;;25.20;56.90;;;;;;5035944;28;20017;-85
2021/08/13 11:06:06;;;;;;;9.05;4.13;;;25.00;56.60;;;;;;5035662;28;20548;-84
2021/08/13 11:08:40;;;;;;;6.90;3.78;;;24.80;57.90;;;;;;5035706;28;20084;-85
2021/08/13 11:11:11;;;;;;;7.90;4.38;;;24.50;59.10;;;;;;5035725;28;20498;-84
2021/08/13 11:13:38;;;;;;;4.93;4.05;;;24.40;58.80;;;;;;5035960;28;20108;-84
2021/08/13 11:16:22;;;;;;;;;;;24.30;60.00;;;;;;5036520;28;20545;-83
2021/08/13 11:18:58;;;;;;;7.72;4.60;;;24.20;59.90;;;;;;5027279;28;19904;-83
2021/08/13 11:21:35;;;;;;;5.90;4.72;;;;;;;;;;5036159;28;20025;-84
2021/08/13 11:24:02;;;;;;;10.45;4.18;;;;;;;;;;5035852;28;20455;-82
2021/08/13 11:26:51;;;;;;;6.28;4.13;;;;;;;;;;5035306;28;20169;-83
2021/08/13 11:29:29;;;;;;;7.22;4.25;;;;;;;;;;5018194;28;20555;-84
2021/08/13 11:31:55;;;;;;;7.45;4.95;;;;;;;;;;5037595;28;20040;-83
2021/08/13 11:34:40;;;;;;;6.85;4.10;;;;;;;;;;5037442;28;20064;-83
2021/08/13 11:37:06;;;;;;;9.75;5.13;;;;;;;;;;5035956;28;20124;-83
2021/08/13 11:39:37;;;;;;;8.40;5.30;;;;;;;;;;5038788;28;20064;-83
2021/08/13 11:42:05;;;;;;;5.82;4.78;;;;;;;;;;5021074;28;20026;-84
2021/08/13 11:44:32;;;;;;;7.30;4.97;;;23.90;60.90;;;;;;5034953;28;20091;-84
2021/08/13 11:46:58;;;;;;;6.47;4.82;;;23.10;62.80;;;;;;5035136;28;20028;-84
2021/08/13 11:49:25;;;;;;;8.55;4.95;;;23.00;63.70;;;;;;5034840;28;20508;-83
2021/08/13 11:51:51;;;;;;;8.80;5.75;;;22.80;63.80;;;;;;5034893;28;20026;-83
2021/08/13 11:54:25;;;;;;;5.43;4.45;;;22.70;64.10;;;;;;5034982;28;20025;-85
2021/08/13 11:56:51;;;;;;;6.82;5.55;;;22.50;64.40;;;;;;5035130;28;20060;-85
2021/08/13 11:59:17;;;;;;;11.88;6.40;;;22.50;65.50;;;;;;5018103;28;20044;-83
2021/08/13 12:01:54;;;;;;;10.55;5.70;;;22.60;65.40;;;;;;5034742;28;20128;-86
2021/08/13 12:04:24;;;;;;;8.45;5.78;;;22.70;65.40;;;;;;5034583;28;20025;-85
2021/08/13 12:07:08;;;;;;;7.15;5.30;;;22.60;66.10;;;;;;5034796;28;20056;-82
2021/08/13 12:09:43;;;;;;;7.97;5.13;;;22.60;66.30;;;;;;5035619;28;20112;-85
2021/08/13 12:12:13;;;;;;;8.32;6.18;;;22.60;66.80;;;;;;5035527;28;20107;-83
2021/08/13 12:14:48;;;;;;;9.10;6.32;;;22.60;66.70;;;;;;5035639;28;20038;-83
2021/08/13 12:17:14;;;;;;;8.75;5.55;;;22.60;66.60;;;;;;5034513;28;20029;-83
2021/08/13 12:19:40;;;;;;;7.25;5.55;;;22.50;66.80;;;;;;5034592;28;20022;-83
2021/08/13 12:22:07;;;;;;;7.78;5.35;;;22.40;67.00;;;;;;5034693;28;20018;-85
2021/08/13 12:24:40;;;;;;;7.82;5.20;;;22.50;67.40;;;;;;5021300;28;20028;-84
2021/08/13 12:27:08;;;;;;;8.32;5.25;;;22.60;66.90;;;;;;5000486;28;20022;-84
2021/08/13 12:29:35;;;;;;;;;;;22.80;66.20;;;;;;5027852;28;20375;-83
2021/08/13 12:32:02;;;;;;;8.60;5.78;;;22.90;66.10;;;;;;5034938;28;19912;-84
2021/08/13 12:34:30;;;;;;;7.72;5.20;;;23.00;65.60;;;;;;5035337;28;20072;-85
2021/08/13 12:37:04;;;;;;;9.63;6.05;;;23.20;63.80;;;;;;5034589;28;20017;-84
2021/08/13 12:39:32;;;;;;;6.57;4.63;;;23.10;62.40;;;;;;5035662;28;20025;-83
2021/08/13 12:41:58;;;;;;;7.47;4.70;;;23.20;62.50;;;;;;5036154;28;20099;-85
2021/08/13 12:44:24;;;;;;;6.75;4.75;;;23.20;61.70;;;;;;5035461;28;20026;-83
2021/08/13 12:46:51;;;;;;;8.98;4.40;;;23.20;61.30;;;;;;5035932;28;20025;-85
2021/08/13 12:49:20;;;;;;;7.55;5.40;;;23.30;61.50;;;;;;5034389;28;20037;-83
2021/08/13 12:51:47;;;;;;;6.30;4.93;;;23.40;61.70;;;;;;5037829;28;20386;-84
2021/08/13 12:54:32;;;;;;;8.40;4.07;;;23.50;61.10;;;;;;5036716;28;20026;-84
2021/08/13 12:56:58;;;;;;;8.95;4.60;;;23.50;60.80;;;;;;5036517;28;20021;-84
2021/08/13 12:59:34;;;;;;;6.83;4.30;;;23.40;59.90;;;;;;5001634;28;20029;-84
2021/08/13 13:02:01;;;;;;;7.78;4.38;;;23.40;59.20;;;;;;5027774;28;20057;-84
2021/08/13 13:04:41;;;;;;;10.45;4.47;;;23.30;59.70;;;;;;5035096;28;20105;-83